sensor_id;sensor_type;location;lat;lon;timestamp;pressure;altitude;pressure_sealevel;temperature;humidity
69766;BME280;57039;48.014;21.384;2023-03-15T00:00:27;99241.59;;;9.59;100.00
69766;BME280;57039;48.014;21.384;2023-03-15T00:01:30;99237.41;;;9.56;100.00
69766;BME280;57039;48.014;21.384;2023-03-15T00:02:33;99238.19;;;9.46;100.00
69766;BME280;57039;48.014;21.384;2023-03-15T00:03:36;99244.09;;;9.36;100.00
69766;BME280;57039;48.014;21.384;2023-03-15T00:04:39;99239.91;;;9.34;100.00
69766;BME280;57039;48.014;21.384;2023-03-15T00:05:45;99244.50;;;9.30;100.00
69766;BME280;57039;48.014;21.384;2023-03-15T00:06:48;99243.03;;;9.26;100.00
69766;BME280;57039;48.014;21.384;2023-03-15T00:07:52;99243.16;;;9.25;100.00
69766;BME280;57039;48.014;21.384;2023-03-15T00:08:56;99245.87;;;9.23;100.00
69766;BME280;57039;48.014;21.384;2023-03-15T00:09:58;99242.41;;;9.23;100.00
69766;BME280;57039;48.014;21.384;2023-03-15T00:11:02;99245.13;;;9.21;100.00
69766;BME280;57039;48.014;21.384;2023-03-15T00:12:05;99249.03;;;9.16;100.00
69766;BME280;57039;48.014;21.384;2023-03-15T00:13:09;99250.28;;;9.23;100.00
69766;BME280;57039;48.014;21.384;2023-03-15T00:14:13;99249.09;;;9.27;100.00
69766;BME280;57039;48.014;21.384;2023-03-15T00:15:15;99249.84;;;9.29;100.00
69766;BME280;57039;48.014;21.384;2023-03-15T00:16:18;99245.44;;;9.29;100.00
69766;BME280;57039;48.014;21.384;2023-03-15T00:17:21;99244.59;;;9.29;100.00
69766;BME280;57039;48.014;21.384;2023-03-15T00:18:28;99251.19;;;9.34;100.00
69766;BME280;57039;48.014;21.384;2023-03-15T00:19:31;99250.25;;;9.35;100.00
69766;BME280;57039;48.014;21.384;2023-03-15T00:20:36;99250.38;;;9.34;100.00
69766;BME280;57039;48.014;21.384;2023-03-15T00:21:40;99248.56;;;9.34;100.00
69766;BME280;57039;48.014;21.384;2023-03-15T00:22:45;99252.63;;;9.38;100.00
69766;BME280;57039;48.014;21.384;2023-03-15T00:23:48;99255.78;;;9.44;100.00
69766;BME280;57039;48.014;21.384;2023-03-15T00:24:51;99262.06;;;9.41;100.00
69766;BME280;57039;48.014;21.384;2023-03-15T00:25:54;99263.53;;;9.32;100.00
69766;BME280;57039;48.014;21.384;2023-03-15T00:26:57;99259.03;;;9.34;100.00
69766;BME280;57039;48.014;21.384;2023-03-15T00:28:01;99265.31;;;9.32;100.00
69766;BME280;57039;48.014;21.384;2023-03-15T00:29:06;99260.00;;;9.33;100.00
69766;BME280;57039;48.014;21.384;2023-03-15T00:30:10;99259.56;;;9.40;100.00
69766;BME280;57039;48.014;21.384;2023-03-15T00:31:20;99256.81;;;9.41;100.00
69766;BME280;57039;48.014;21.384;2023-03-15T00:32:24;99255.25;;;9.38;100.00
69766;BME280;57039;48.014;21.384;2023-03-15T00:33:28;99247.13;;;9.30;100.00
69766;BME280;57039;48.014;21.384;2023-03-15T00:34:31;99257.16;;;9.36;100.00
69766;BME280;57039;48.014;21.384;2023-03-15T00:35:43;99261.44;;;9.37;100.00
69766;BME280;57039;48.014;21.384;2023-03-15T00:36:46;99256.31;;;9.36;100.00
69766;BME280;57039;48.014;21.384;2023-03-15T00:37:56;99270.97;;;9.38;100.00
69766;BME280;57039;48.014;21.384;2023-03-15T00:39:01;99265.03;;;9.36;100.00
69766;BME280;57039;48.014;21.384;2023-03-15T00:40:09;99273.78;;;9.35;100.00
69766;BME280;57039;48.014;21.384;2023-03-15T00:41:15;99270.34;;;9.35;100.00
69766;BME280;57039;48.014;21.384;2023-03-15T00:42:18;99275.50;;;9.36;100.00
69766;BME280;57039;48.014;21.384;2023-03-15T00:43:20;99270.97;;;9.38;100.00
69766;BME280;57039;48.014;21.384;2023-03-15T00:44:29;99271.91;;;9.37;100.00
69766;BME280;57039;48.014;21.384;2023-03-15T00:45:32;99274.19;;;9.42;100.00
69766;BME280;57039;48.014;21.384;2023-03-15T00:46:36;99273.69;;;9.37;100.00
69766;BME280;57039;48.014;21.384;2023-03-15T00:47:39;99276.97;;;9.28;100.00
69766;BME280;57039;48.014;21.384;2023-03-15T00:48:49;99277.47;;;9.20;100.00
69766;BME280;57039;48.014;21.384;2023-03-15T00:49:53;99273.72;;;9.11;100.00
69766;BME280;57039;48.014;21.384;2023-03-15T00:51:10;99276.13;;;9.14;100.00
69766;BME280;57039;48.014;21.384;2023-03-15T00:52:14;99272.28;;;9.07;100.00
69766;BME280;57039;48.014;21.384;2023-03-15T00:53:17;99276.22;;;9.00;100.00
69766;BME280;57039;48.014;21.384;2023-03-15T00:54:20;99284.94;;;9.01;100.00
69766;BME280;57039;48.014;21.384;2023-03-15T00:55:26;99283.03;;;8.90;100.00
69766;BME280;57039;48.014;21.384;2023-03-15T00:56:29;99276.78;;;8.80;100.00
69766;BME280;57039;48.014;21.384;2023-03-15T00:57:32;99280.50;;;8.63;100.00
69766;BME280;57039;48.014;21.384;2023-03-15T00:58:36;99280.31;;;8.66;100.00
69766;BME280;57039;48.014;21.384;2023-03-15T00:59:39;99276.87;;;8.65;100.00
69766;BME280;57039;48.014;21.384;2023-03-15T01:00:42;99276.31;;;8.73;100.00
69766;BME280;57039;48.014;21.384;2023-03-15T01:01:45;99281.56;;;8.73;100.00
69766;BME280;57039;48.014;21.384;2023-03-15T01:02:53;99280.09;;;8.69;100.00
69766;BME280;57039;48.014;21.384;2023-03-15T01:03:56;99262.72;;;8.55;100.00
69766;BME280;57039;48.014;21.384;2023-03-15T01:04:59;99279.06;;;8.59;100.00
69766;BME280;57039;48.014;21.384;2023-03-15T01:06:15;99281.56;;;8.60;100.00
69766;BME280;57039;48.014;21.384;2023-03-15T01:07:18;99277.91;;;8.63;100.00
69766;BME280;57039;48.014;21.384;2023-03-15T01:08:21;99285.94;;;8.60;100.00
69766;BME280;57039;48.014;21.384;2023-03-15T01:09:25;99278.00;;;8.61;100.00
69766;BME280;57039;48.014;21.384;2023-03-15T01:10:28;99278.66;;;8.65;100.00
69766;BME280;57039;48.014;21.384;2023-03-15T01:11:31;99283.34;;;8.73;100.00
69766;BME280;57039;48.014;21.384;2023-03-15T01:12:34;99276.66;;;8.68;100.00
69766;BME280;57039;48.014;21.384;2023-03-15T01:13:37;99277.41;;;8.71;100.00
69766;BME280;57039;48.014;21.384;2023-03-15T01:14:41;99283.87;;;8.78;100.00
69766;BME280;57039;48.014;21.384;2023-03-15T01:15:45;99273.72;;;8.73;100.00
69766;BME280;57039;48.014;21.384;2023-03-15T01:16:50;99274.56;;;8.74;100.00
69766;BME280;57039;48.014;21.384;2023-03-15T01:17:54;99285.34;;;8.82;100.00
69766;BME280;57039;48.014;21.384;2023-03-15T01:18:59;99275.50;;;8.85;100.00
69766;BME280;57039;48.014;21.384;2023-03-15T01:20:02;99278.66;;;8.90;100.00
69766;BME280;57039;48.014;21.384;2023-03-15T01:21:09;99280.00;;;8.96;100.00
69766;BME280;57039;48.014;21.384;2023-03-15T01:22:12;99283.47;;;8.97;100.00
69766;BME280;57039;48.014;21.384;2023-03-15T01:23:17;99283.78;;;9.05;100.00
69766;BME280;57039;48.014;21.384;2023-03-15T01:24:21;99281.56;;;9.11;100.00
69766;BME280;57039;48.014;21.384;2023-03-15T01:25:24;99283.16;;;9.14;100.00
69766;BME280;57039;48.014;21.384;2023-03-15T01:26:27;99278.75;;;9.14;100.00
69766;BME280;57039;48.014;21.384;2023-03-15T01:27:30;99287.63;;;9.12;100.00
69766;BME280;57039;48.014;21.384;2023-03-15T01:28:34;99286.59;;;9.14;100.00
69766;BME280;57039;48.014;21.384;2023-03-15T01:29:37;99289.81;;;9.18;100.00
69766;BME280;57039;48.014;21.384;2023-03-15T01:30:48;99286.59;;;9.14;100.00
69766;BME280;57039;48.014;21.384;2023-03-15T01:31:51;99282.00;;;9.05;100.00
69766;BME280;57039;48.014;21.384;2023-03-15T01:32:54;99233.16;;;8.80;100.00
69766;BME280;57039;48.014;21.384;2023-03-15T01:33:58;99293.59;;;9.14;100.00
69766;BME280;57039;48.014;21.384;2023-03-15T01:35:03;99294.56;;;9.13;100.00
69766;BME280;57039;48.014;21.384;2023-03-15T01:36:07;99293.53;;;9.16;100.00
69766;BME280;57039;48.014;21.384;2023-03-15T01:37:10;99292.44;;;9.18;100.00
69766;BME280;57039;48.014;21.384;2023-03-15T01:38:17;99294.84;;;9.21;100.00
69766;BME280;57039;48.014;21.384;2023-03-15T01:39:20;99290.34;;;9.23;100.00
69766;BME280;57039;48.014;21.384;2023-03-15T01:40:23;99297.47;;;9.21;100.00
69766;BME280;57039;48.014;21.384;2023-03-15T01:41:27;99299.37;;;9.19;100.00
69766;BME280;57039;48.014;21.384;2023-03-15T01:42:30;99292.44;;;9.18;100.00
69766;BME280;57039;48.014;21.384;2023-03-15T01:43:36;99289.94;;;9.17;100.00
69766;BME280;57039;48.014;21.384;2023-03-15T01:44:57;99289.12;;;9.16;100.00
69766;BME280;57039;48.014;21.384;2023-03-15T01:47:09;99282.63;;;9.09;100.00
69766;BME280;57039;48.014;21.384;2023-03-15T01:48:13;99285.97;;;9.11;100.00
69766;BME280;57039;48.014;21.384;2023-03-15T01:49:27;99277.16;;;9.12;100.00
69766;BME280;57039;48.014;21.384;2023-03-15T01:50:32;99282.81;;;9.06;100.00
69766;BME280;57039;48.014;21.384;2023-03-15T01:51:39;99281.66;;;8.97;100.00
69766;BME280;57039;48.014;21.384;2023-03-15T01:52:44;99290.38;;;8.98;100.00
69766;BME280;57039;48.014;21.384;2023-03-15T01:53:53;99286.19;;;8.95;100.00
69766;BME280;57039;48.014;21.384;2023-03-15T01:55:14;99292.66;;;8.89;100.00
69766;BME280;57039;48.014;21.384;2023-03-15T01:56:20;99282.22;;;8.89;100.00
69766;BME280;57039;48.014;21.384;2023-03-15T01:57:28;99281.56;;;8.73;100.00
69766;BME280;57039;48.014;21.384;2023-03-15T01:58:34;99282.19;;;8.64;100.00
69766;BME280;57039;48.014;21.384;2023-03-15T01:59:43;99274.53;;;8.61;100.00
69766;BME280;57039;48.014;21.384;2023-03-15T02:00:48;99276.31;;;8.60;100.00
69766;BME280;57039;48.014;21.384;2023-03-15T02:01:52;99279.56;;;8.64;100.00
69766;BME280;57039;48.014;21.384;2023-03-15T02:03:05;99279.34;;;8.67;100.00
69766;BME280;57039;48.014;21.384;2023-03-15T02:04:16;99259.59;;;8.63;100.00
69766;BME280;57039;48.014;21.384;2023-03-15T02:05:23;99269.44;;;8.72;100.00
69766;BME280;57039;48.014;21.384;2023-03-15T02:06:28;99271.75;;;8.77;100.00
69766;BME280;57039;48.014;21.384;2023-03-15T02:07:31;99274.56;;;8.74;100.00
69766;BME280;57039;48.014;21.384;2023-03-15T02:08:41;99271.75;;;8.77;100.00
69766;BME280;57039;48.014;21.384;2023-03-15T02:10:05;99263.88;;;8.64;100.00
69766;BME280;57039;48.014;21.384;2023-03-15T02:11:12;99278.66;;;8.65;100.00
69766;BME280;57039;48.014;21.384;2023-03-15T02:12:16;99280.09;;;8.69;100.00
69766;BME280;57039;48.014;21.384;2023-03-15T02:13:23;99276.44;;;8.72;100.00
69766;BME280;57039;48.014;21.384;2023-03-15T02:14:27;99280.44;;;8.77;100.00
69766;BME280;57039;48.014;21.384;2023-03-15T02:15:31;99283.87;;;8.78;100.00
69766;BME280;57039;48.014;21.384;2023-03-15T02:16:34;99279.47;;;8.78;100.00
69766;BME280;57039;48.014;21.384;2023-03-15T02:17:40;99279.59;;;8.77;100.00
69766;BME280;57039;48.014;21.384;2023-03-15T02:18:45;99283.75;;;8.79;100.00
69766;BME280;57039;48.014;21.384;2023-03-15T02:21:41;99278.53;;;8.79;100.00
69766;BME280;57039;48.014;21.384;2023-03-15T02:22:54;99280.44;;;8.77;100.00
69766;BME280;57039;48.014;21.384;2023-03-15T02:26:47;99284.72;;;8.78;100.00
69766;BME280;57039;48.014;21.384;2023-03-15T02:27:53;99283.13;;;8.76;100.00
69766;BME280;57039;48.014;21.384;2023-03-15T02:28:57;99292.97;;;8.72;100.00
69766;BME280;57039;48.014;21.384;2023-03-15T02:30:01;99277.41;;;8.71;100.00
69766;BME280;57039;48.014;21.384;2023-03-15T02:31:09;99282.91;;;8.66;100.00
69766;BME280;57039;48.014;21.384;2023-03-15T02:32:12;99284.59;;;8.67;100.00
69766;BME280;57039;48.014;21.384;2023-03-15T02:33:27;99287.81;;;8.58;100.00
69766;BME280;57039;48.014;21.384;2023-03-15T02:34:31;99286.97;;;8.57;100.00
69766;BME280;57039;48.014;21.384;2023-03-15T02:35:33;99278.19;;;8.58;100.00
69766;BME280;57039;48.014;21.384;2023-03-15T02:36:36;99278.84;;;8.62;100.00
69766;BME280;57039;48.014;21.384;2023-03-15T02:37:40;99286.47;;;8.65;100.00
69766;BME280;57039;48.014;21.384;2023-03-15T02:38:50;99281.12;;;8.66;100.00
69766;BME280;57039;48.014;21.384;2023-03-15T02:39:53;99284.59;;;8.67;100.00
69766;BME280;57039;48.014;21.384;2023-03-15T02:40:57;99288.06;;;8.67;100.00
69766;BME280;57039;48.014;21.384;2023-03-15T02:42:01;99283.75;;;8.66;100.00
69766;BME280;57039;48.014;21.384;2023-03-15T02:43:09;99289.59;;;8.70;100.00
69766;BME280;57039;48.014;21.384;2023-03-15T02:44:22;99291.31;;;8.71;100.00
69766;BME280;57039;48.014;21.384;2023-03-15T02:45:27;99288.69;;;8.71;100.00
69766;BME280;57039;48.014;21.384;2023-03-15T02:46:34;99294.63;;;8.73;100.00
69766;BME280;57039;48.014;21.384;2023-03-15T02:47:38;99286.56;;;8.76;100.00
69766;BME280;57039;48.014;21.384;2023-03-15T02:48:43;99285.66;;;8.77;100.00
69766;BME280;57039;48.014;21.384;2023-03-15T02:49:50;99291.19;;;8.73;100.00
69766;BME280;57039;48.014;21.384;2023-03-15T02:50:53;99286.69;;;8.75;100.00
69766;BME280;57039;48.014;21.384;2023-03-15T02:51:56;99284.09;;;8.75;100.00
69766;BME280;57039;48.014;21.384;2023-03-15T02:52:59;99287.75;;;8.72;100.00
69766;BME280;57039;48.014;21.384;2023-03-15T02:54:05;99291.38;;;8.69;100.00
69766;BME280;57039;48.014;21.384;2023-03-15T02:55:07;99292.97;;;8.72;100.00
69766;BME280;57039;48.014;21.384;2023-03-15T02:56:10;99287.66;;;8.74;100.00
69766;BME280;57039;48.014;21.384;2023-03-15T02:57:15;99296.94;;;8.78;100.00
69766;BME280;57039;48.014;21.384;2023-03-15T02:58:22;99302.28;;;8.76;100.00
69766;BME280;57039;48.014;21.384;2023-03-15T02:59:25;99291.81;;;8.76;100.00
69766;BME280;57039;48.014;21.384;2023-03-15T03:00:28;99289.31;;;8.75;100.00
69766;BME280;57039;48.014;21.384;2023-03-15T03:01:32;99292.97;;;8.72;100.00
69766;BME280;57039;48.014;21.384;2023-03-15T03:02:44;99299.44;;;8.79;100.00
69766;BME280;57039;48.014;21.384;2023-03-15T03:03:48;99291.72;;;8.78;100.00
69766;BME280;57039;48.014;21.384;2023-03-15T03:04:51;99297.69;;;8.80;100.00
69766;BME280;57039;48.014;21.384;2023-03-15T03:05:54;99282.50;;;8.72;100.00
69766;BME280;57039;48.014;21.384;2023-03-15T03:06:57;99296.62;;;8.82;100.00
69766;BME280;57039;48.014;21.384;2023-03-15T03:08:01;99291.41;;;8.82;100.00
69766;BME280;57039;48.014;21.384;2023-03-15T03:09:04;99289.09;;;8.78;100.00
69766;BME280;57039;48.014;21.384;2023-03-15T03:10:10;99292.00;;;8.73;100.00
69766;BME280;57039;48.014;21.384;2023-03-15T03:11:15;99287.84;;;8.71;100.00
69766;BME280;57039;48.014;21.384;2023-03-15T03:12:18;99276.94;;;8.64;100.00
69766;BME280;57039;48.014;21.384;2023-03-15T03:13:21;99285.25;;;8.71;100.00
69766;BME280;57039;48.014;21.384;2023-03-15T03:14:24;99284.28;;;8.72;100.00
69766;BME280;57039;48.014;21.384;2023-03-15T03:15:27;99280.84;;;8.71;100.00
69766;BME280;57039;48.014;21.384;2023-03-15T03:16:30;99281.75;;;8.70;100.00
69766;BME280;57039;48.014;21.384;2023-03-15T03:17:34;99284.50;;;8.68;100.00
69766;BME280;57039;48.014;21.384;2023-03-15T03:18:39;99286.38;;;8.66;100.00
69766;BME280;57039;48.014;21.384;2023-03-15T03:19:44;99287.00;;;8.70;100.00
69766;BME280;57039;48.014;21.384;2023-03-15T03:20:47;99293.91;;;8.71;100.00
69766;BME280;57039;48.014;21.384;2023-03-15T03:21:51;99299.87;;;8.73;100.00
69766;BME280;57039;48.014;21.384;2023-03-15T03:22:55;99293.72;;;8.74;100.00
69766;BME280;57039;48.014;21.384;2023-03-15T03:23:57;99301.22;;;8.79;100.00
69766;BME280;57039;48.014;21.384;2023-03-15T03:25:00;99303.00;;;8.78;100.00
69766;BME280;57039;48.014;21.384;2023-03-15T03:26:11;99307.28;;;8.79;100.00
69766;BME280;57039;48.014;21.384;2023-03-15T03:27:18;99304.69;;;8.79;100.00
69766;BME280;57039;48.014;21.384;2023-03-15T03:28:23;99306.38;;;8.80;100.00
69766;BME280;57039;48.014;21.384;2023-03-15T03:29:26;99306.25;;;8.82;100.00
69766;BME280;57039;48.014;21.384;2023-03-15T03:30:34;99302.28;;;8.76;100.00
69766;BME280;57039;48.014;21.384;2023-03-15T03:31:38;99301.34;;;8.77;100.00
69766;BME280;57039;48.014;21.384;2023-03-15T03:32:40;99310.78;;;8.80;100.00
69766;BME280;57039;48.014;21.384;2023-03-15T03:33:43;99300.19;;;8.81;100.00
69766;BME280;57039;48.014;21.384;2023-03-15T03:34:47;99300.19;;;8.81;100.00
69766;BME280;57039;48.014;21.384;2023-03-15T03:35:52;99302.59;;;8.84;100.00
69766;BME280;57039;48.014;21.384;2023-03-15T03:36:56;99304.38;;;8.84;100.00
69766;BME280;57039;48.014;21.384;2023-03-15T03:38:00;99298.53;;;8.80;100.00
69766;BME280;57039;48.014;21.384;2023-03-15T03:39:05;99291.59;;;8.79;100.00
69766;BME280;57039;48.014;21.384;2023-03-15T03:40:09;99292.56;;;8.78;100.00
69766;BME280;57039;48.014;21.384;2023-03-15T03:41:13;99283.47;;;8.71;100.00
69766;BME280;57039;48.014;21.384;2023-03-15T03:42:17;99298.72;;;8.77;100.00
69766;BME280;57039;48.014;21.384;2023-03-15T03:43:20;99279.16;;;8.70;100.00
69766;BME280;57039;48.014;21.384;2023-03-15T03:44:23;99285.75;;;8.76;100.00
69766;BME280;57039;48.014;21.384;2023-03-15T03:45:25;99292.00;;;8.73;100.00
69766;BME280;57039;48.014;21.384;2023-03-15T03:46:30;99294.75;;;8.72;100.00
69766;BME280;57039;48.014;21.384;2023-03-15T03:47:34;99283.13;;;8.63;100.00
69766;BME280;57039;48.014;21.384;2023-03-15T03:48:38;99298.19;;;8.72;100.00
69766;BME280;57039;48.014;21.384;2023-03-15T03:49:41;99296.41;;;8.73;100.00
69766;BME280;57039;48.014;21.384;2023-03-15T03:50:45;99298.09;;;8.74;100.00
69766;BME280;57039;48.014;21.384;2023-03-15T03:51:47;99299.87;;;8.73;100.00
69766;BME280;57039;48.014;21.384;2023-03-15T03:52:51;99310.31;;;8.73;100.00
69766;BME280;57039;48.014;21.384;2023-03-15T03:53:54;99306.25;;;8.69;100.00
69766;BME280;57039;48.014;21.384;2023-03-15T03:54:57;99306.38;;;8.67;100.00
69766;BME280;57039;48.014;21.384;2023-03-15T03:56:02;99300.37;;;8.65;100.00
69766;BME280;57039;48.014;21.384;2023-03-15T03:57:05;99295.56;;;8.59;100.00
69766;BME280;57039;48.014;21.384;2023-03-15T03:58:10;99302.03;;;8.54;100.00
69766;BME280;57039;48.014;21.384;2023-03-15T03:59:13;99298.16;;;8.47;100.00
69766;BME280;57039;48.014;21.384;2023-03-15T04:00:17;99297.63;;;8.41;100.00
69766;BME280;57039;48.014;21.384;2023-03-15T04:01:21;99295.09;;;8.40;100.00
69766;BME280;57039;48.014;21.384;2023-03-15T04:02:24;99292.59;;;8.38;100.00
69766;BME280;57039;48.014;21.384;2023-03-15T04:03:29;99295.09;;;8.40;100.00
69766;BME280;57039;48.014;21.384;2023-03-15T04:04:32;99293.22;;;8.42;100.00
69766;BME280;57039;48.014;21.384;2023-03-15T04:05:36;99281.75;;;8.44;100.00
69766;BME280;57039;48.014;21.384;2023-03-15T04:06:40;99284.44;;;8.43;100.00
69766;BME280;57039;48.014;21.384;2023-03-15T04:07:48;99284.97;;;8.48;100.00
69766;BME280;57039;48.014;21.384;2023-03-15T04:08:56;99287.81;;;8.58;100.00
69766;BME280;57039;48.014;21.384;2023-03-15T04:10:00;99284.78;;;8.64;100.00
69766;BME280;57039;48.014;21.384;2023-03-15T04:11:06;99284.37;;;8.70;100.00
69766;BME280;57039;48.014;21.384;2023-03-15T04:12:10;99284.16;;;8.73;100.00
69766;BME280;57039;48.014;21.384;2023-03-15T04:13:13;99289.09;;;8.78;100.00
69766;BME280;57039;48.014;21.384;2023-03-15T04:14:16;99287.13;;;8.81;100.00
69766;BME280;57039;48.014;21.384;2023-03-15T04:15:20;99282.50;;;8.85;100.00
69766;BME280;57039;48.014;21.384;2023-03-15T04:16:26;99285.03;;;8.86;100.00
69766;BME280;57039;48.014;21.384;2023-03-15T04:17:30;99285.56;;;8.91;100.00
69766;BME280;57039;48.014;21.384;2023-03-15T04:18:35;99281.78;;;8.96;100.00
69766;BME280;57039;48.014;21.384;2023-03-15T04:19:38;99282.53;;;8.98;100.00
69766;BME280;57039;48.014;21.384;2023-03-15T04:20:42;99282.41;;;8.99;100.00
69766;BME280;57039;48.014;21.384;2023-03-15T04:21:48;99283.25;;;9.00;100.00
69766;BME280;57039;48.014;21.384;2023-03-15T04:22:52;99281.38;;;9.02;100.00
69766;BME280;57039;48.014;21.384;2023-03-15T04:24:00;99287.44;;;9.02;100.00
69766;BME280;57039;48.014;21.384;2023-03-15T04:25:04;99288.06;;;9.06;100.00
69766;BME280;57039;48.014;21.384;2023-03-15T04:26:07;99281.91;;;9.07;100.00
69766;BME280;57039;48.014;21.384;2023-03-15T04:27:10;99290.59;;;9.07;100.00
69766;BME280;57039;48.014;21.384;2023-03-15T04:28:18;99293.28;;;9.06;100.00
69766;BME280;57039;48.014;21.384;2023-03-15T04:29:21;99296.84;;;9.05;100.00
69766;BME280;57039;48.014;21.384;2023-03-15T04:30:25;99297.69;;;9.05;100.00
69766;BME280;57039;48.014;21.384;2023-03-15T04:31:34;99309.19;;;9.03;100.00
69766;BME280;57039;48.014;21.384;2023-03-15T04:32:39;99299.69;;;9.02;100.00
69766;BME280;57039;48.014;21.384;2023-03-15T04:33:44;99304.72;;;9.05;100.00
69766;BME280;57039;48.014;21.384;2023-03-15T04:34:47;99307.22;;;9.06;100.00
69766;BME280;57039;48.014;21.384;2023-03-15T04:35:53;99304.62;;;9.06;100.00
69766;BME280;57039;48.014;21.384;2023-03-15T04:36:57;99307.94;;;9.08;100.00
69766;BME280;57039;48.014;21.384;2023-03-15T04:38:01;99300.09;;;9.08;100.00
69766;BME280;57039;48.014;21.384;2023-03-15T04:39:06;99300.50;;;9.02;100.00
69766;BME280;57039;48.014;21.384;2023-03-15T04:40:10;99318.94;;;9.13;100.00
69766;BME280;57039;48.014;21.384;2023-03-15T04:41:15;99314.44;;;9.16;100.00
69766;BME280;57039;48.014;21.384;2023-03-15T04:42:20;99318.09;;;9.13;100.00
69766;BME280;57039;48.014;21.384;2023-03-15T04:43:23;99320.94;;;9.10;100.00
69766;BME280;57039;48.014;21.384;2023-03-15T04:44:27;99320.19;;;9.08;100.00
69766;BME280;57039;48.014;21.384;2023-03-15T04:45:31;99318.62;;;9.05;100.00
69766;BME280;57039;48.014;21.384;2023-03-15T04:46:34;99320.41;;;9.05;100.00
69766;BME280;57039;48.014;21.384;2023-03-15T04:47:37;99314.63;;;9.00;100.00
69766;BME280;57039;48.014;21.384;2023-03-15T04:48:41;99330.78;;;9.06;100.00
69766;BME280;57039;48.014;21.384;2023-03-15T04:49:47;99330.87;;;9.05;100.00
69766;BME280;57039;48.014;21.384;2023-03-15T04:50:50;99324.81;;;9.04;100.00
69766;BME280;57039;48.014;21.384;2023-03-15T04:51:53;99330.97;;;9.03;100.00
69766;BME280;57039;48.014;21.384;2023-03-15T04:52:57;99334.66;;;9.01;100.00
69766;BME280;57039;48.014;21.384;2023-03-15T04:54:01;99339.88;;;9.01;100.00
69766;BME280;57039;48.014;21.384;2023-03-15T04:55:05;99338.09;;;9.01;100.00
69766;BME280;57039;48.014;21.384;2023-03-15T04:56:08;99340.78;;;9.00;100.00
69766;BME280;57039;48.014;21.384;2023-03-15T04:57:12;99342.59;;;8.99;100.00
69766;BME280;57039;48.014;21.384;2023-03-15T04:58:16;99345.41;;;8.96;100.00
69766;BME280;57039;48.014;21.384;2023-03-15T04:59:19;99341.84;;;8.97;100.00
69766;BME280;57039;48.014;21.384;2023-03-15T05:00:23;99344.03;;;8.90;100.00
69766;BME280;57039;48.014;21.384;2023-03-15T05:01:30;99345.06;;;8.88;100.00
69766;BME280;57039;48.014;21.384;2023-03-15T05:02:34;99348.94;;;8.82;100.00
69766;BME280;57039;48.014;21.384;2023-03-15T05:03:37;99350.00;;;8.80;100.00
69766;BME280;57039;48.014;21.384;2023-03-15T05:04:41;99352.69;;;8.78;100.00
69766;BME280;57039;48.014;21.384;2023-03-15T05:05:44;99342.97;;;8.80;100.00
69766;BME280;57039;48.014;21.384;2023-03-15T05:06:47;99347.25;;;8.81;100.00
69766;BME280;57039;48.014;21.384;2023-03-15T05:07:50;99350.00;;;8.80;100.00
69766;BME280;57039;48.014;21.384;2023-03-15T05:08:54;99332.19;;;8.72;100.00
69766;BME280;57039;48.014;21.384;2023-03-15T05:09:57;99347.25;;;8.81;100.00
69766;BME280;57039;48.014;21.384;2023-03-15T05:11:01;99340.25;;;8.82;100.00
69766;BME280;57039;48.014;21.384;2023-03-15T05:12:05;99343.69;;;8.82;100.00
69766;BME280;57039;48.014;21.384;2023-03-15T05:13:08;99349.03;;;8.81;100.00
69766;BME280;57039;48.014;21.384;2023-03-15T05:14:11;99344.56;;;8.83;100.00
69766;BME280;57039;48.014;21.384;2023-03-15T05:15:15;99343.06;;;8.79;100.00
69766;BME280;57039;48.014;21.384;2023-03-15T05:16:21;99334.91;;;8.71;100.00
69766;BME280;57039;48.014;21.384;2023-03-15T05:17:24;99322.53;;;8.60;100.00
69766;BME280;57039;48.014;21.384;2023-03-15T05:18:30;99341.47;;;8.63;100.00
69766;BME280;57039;48.014;21.384;2023-03-15T05:19:34;99320.94;;;8.44;100.00
69766;BME280;57039;48.014;21.384;2023-03-15T05:20:37;99345.31;;;8.58;100.00
69766;BME280;57039;48.014;21.384;2023-03-15T05:21:41;99343.88;;;8.54;100.00
69766;BME280;57039;48.014;21.384;2023-03-15T05:22:44;99346.47;;;8.54;100.00
69766;BME280;57039;48.014;21.384;2023-03-15T05:23:47;99347.31;;;8.54;100.00
69766;BME280;57039;48.014;21.384;2023-03-15T05:24:51;99343.88;;;8.54;100.00
69766;BME280;57039;48.014;21.384;2023-03-15T05:25:55;99332.16;;;8.47;100.00
69766;BME280;57039;48.014;21.384;2023-03-15T05:26:58;99346.37;;;8.55;100.00
69766;BME280;57039;48.014;21.384;2023-03-15T05:28:04;99346.28;;;8.57;100.00
69766;BME280;57039;48.014;21.384;2023-03-15T05:29:08;99341.88;;;8.57;100.00
69766;BME280;57039;48.014;21.384;2023-03-15T05:30:12;99342.84;;;8.56;100.00
69766;BME280;57039;48.014;21.384;2023-03-15T05:31:18;99330.25;;;8.49;100.00
69766;BME280;57039;48.014;21.384;2023-03-15T05:32:22;99343.53;;;8.58;100.00
69766;BME280;57039;48.014;21.384;2023-03-15T05:33:28;99344.28;;;8.60;100.00
69766;BME280;57039;48.014;21.384;2023-03-15T05:34:32;99348.69;;;8.60;100.00
69766;BME280;57039;48.014;21.384;2023-03-15T05:35:35;99345.13;;;8.61;100.00
69766;BME280;57039;48.014;21.384;2023-03-15T05:36:38;99344.28;;;8.60;100.00
69766;BME280;57039;48.014;21.384;2023-03-15T05:37:41;99348.78;;;8.58;100.00
69766;BME280;57039;48.014;21.384;2023-03-15T05:38:46;99346.91;;;8.60;100.00
69766;BME280;57039;48.014;21.384;2023-03-15T05:39:58;99356.62;;;8.58;100.00
69766;BME280;57039;48.014;21.384;2023-03-15T05:41:03;99357.47;;;8.59;100.00
69766;BME280;57039;48.014;21.384;2023-03-15T05:42:06;99360.94;;;8.59;100.00
69766;BME280;57039;48.014;21.384;2023-03-15T05:43:11;99367.94;;;8.59;100.00
69766;BME280;57039;48.014;21.384;2023-03-15T05:44:14;99365.22;;;8.60;100.00